createdAt,value
2019-02-20T00:00:00.932Z,10.60
2019-02-20T00:02:30.246Z,11.60
2019-02-20T00:04:59.297Z,11.90
2019-02-20T00:07:28.206Z,13.30
2019-02-20T00:09:57.252Z,12.23
2019-02-20T00:12:26.344Z,10.57
2019-02-20T00:14:55.810Z,11.10
2019-02-20T00:17:24.869Z,12.80
2019-02-20T00:19:53.840Z,12.23
2019-02-20T00:22:22.871Z,11.53
2019-02-20T00:24:51.845Z,12.80
2019-02-20T00:27:20.824Z,11.60
2019-02-20T00:29:50.160Z,11.90
2019-02-20T00:32:19.160Z,11.27
2019-02-20T00:34:48.260Z,11.70
2019-02-20T00:37:17.356Z,11.70
2019-02-20T00:39:46.337Z,11.70
2019-02-20T00:42:15.286Z,11.27
2019-02-20T00:45:03.340Z,11.47
2019-02-20T00:47:45.529Z,11.87
2019-02-20T00:50:15.100Z,10.77
2019-02-20T00:52:50.475Z,11.07
2019-02-20T00:55:19.702Z,11.73
2019-02-20T00:57:48.800Z,12.00
2019-02-20T01:00:17.753Z,12.27
2019-02-20T01:02:46.823Z,11.80
2019-02-20T01:05:15.835Z,11.87
2019-02-20T01:07:44.395Z,12.47
2019-02-20T01:10:13.452Z,12.60
2019-02-20T01:12:42.544Z,12.20
2019-02-20T01:15:11.540Z,13.63
2019-02-20T01:17:40.602Z,11.57
2019-02-20T01:20:09.799Z,13.60
2019-02-20T01:22:38.778Z,13.00
2019-02-20T01:25:07.870Z,11.53
2019-02-20T01:27:36.929Z,13.07
2019-02-20T01:30:05.924Z,13.63
2019-02-20T01:32:34.964Z,13.40
2019-02-20T01:35:03.985Z,14.13
2019-02-20T01:37:32.951Z,13.37
2019-02-20T01:40:02.160Z,13.73
2019-02-20T01:42:31.130Z,14.67
2019-02-20T01:45:00.282Z,14.10
2019-02-20T01:47:29.427Z,14.43
2019-02-20T01:49:58.430Z,13.77
2019-02-20T01:52:27.313Z,14.17
2019-02-20T01:54:56.324Z,13.63
2019-02-20T01:57:25.231Z,13.13
2019-02-20T01:59:54.333Z,13.00
2019-02-20T02:02:23.302Z,14.50
2019-02-20T02:04:52.292Z,13.20
2019-02-20T02:07:21.297Z,14.13
2019-02-20T02:09:50.402Z,14.03
2019-02-20T02:12:19.363Z,13.83
2019-02-20T02:14:48.315Z,16.37
2019-02-20T02:17:17.280Z,14.30
2019-02-20T02:19:46.314Z,14.90
2019-02-20T02:22:15.410Z,13.97
2019-02-20T02:24:44.478Z,14.13
2019-02-20T02:27:13.483Z,14.40
2019-02-20T02:29:42.339Z,12.70
2019-02-20T02:32:11.359Z,15.30
2019-02-20T02:34:40.513Z,14.70
2019-02-20T02:37:09.566Z,14.53
2019-02-20T02:39:38.010Z,14.30
2019-02-20T02:42:07.087Z,14.87
2019-02-20T02:44:36.161Z,15.07
2019-02-20T02:47:05.157Z,15.40
2019-02-20T02:49:34.247Z,15.43
2019-02-20T02:52:03.308Z,15.17
2019-02-20T02:54:32.441Z,15.77
2019-02-20T02:57:01.392Z,15.93
2019-02-20T02:59:30.531Z,15.47
2019-02-20T03:01:59.051Z,14.53
2019-02-20T03:04:28.107Z,14.70
2019-02-20T03:06:57.058Z,14.47
2019-02-20T03:09:26.018Z,14.87
2019-02-20T03:11:55.077Z,14.13
2019-02-20T03:14:24.042Z,12.80
2019-02-20T03:16:53.156Z,13.00
2019-02-20T03:19:22.192Z,13.17
2019-02-20T03:21:51.320Z,14.13
2019-02-20T03:24:20.260Z,13.47
2019-02-20T03:26:50.868Z,14.13
2019-02-20T03:29:19.911Z,11.90
2019-02-20T03:31:48.926Z,12.47
2019-02-20T03:34:17.878Z,12.13
2019-02-20T03:36:46.804Z,12.97
2019-02-20T03:39:15.881Z,12.10
2019-02-20T03:41:44.864Z,12.80
2019-02-20T03:44:13.753Z,11.93
2019-02-20T03:46:42.734Z,12.60
2019-02-20T03:49:11.609Z,12.80
2019-02-20T03:51:40.618Z,14.93
2019-02-20T03:54:09.561Z,12.40
2019-02-20T03:56:38.494Z,12.10
2019-02-20T03:59:07.410Z,12.10
2019-02-20T04:01:36.559Z,11.80
2019-02-20T04:04:05.533Z,12.97
2019-02-20T04:06:34.516Z,12.37
2019-02-20T04:09:04.866Z,13.03
2019-02-20T04:11:33.772Z,12.63
2019-02-20T04:14:02.827Z,12.83
2019-02-20T04:16:31.441Z,12.57
2019-02-20T04:19:00.312Z,12.47
2019-02-20T04:21:29.450Z,13.30
2019-02-20T04:24:02.627Z,12.97
2019-02-20T04:26:29.273Z,13.00
2019-02-20T04:28:58.173Z,14.17
2019-02-20T04:31:27.198Z,13.27
2019-02-20T04:33:57.325Z,13.90
2019-02-20T04:36:26.372Z,13.47
2019-02-20T04:38:55.340Z,12.50
2019-02-20T04:41:24.354Z,13.40
2019-02-20T04:43:53.306Z,12.30
2019-02-20T04:46:22.194Z,13.07
2019-02-20T04:48:51.351Z,13.57
2019-02-20T04:51:20.344Z,13.17
2019-02-20T04:53:49.264Z,14.87
2019-02-20T04:56:18.220Z,12.10
2019-02-20T04:58:49.441Z,13.63
2019-02-20T05:01:18.522Z,13.10
2019-02-20T05:03:47.613Z,12.77
2019-02-20T05:06:16.629Z,12.20
2019-02-20T05:08:45.679Z,13.17
2019-02-20T05:11:14.637Z,13.20
2019-02-20T05:13:43.564Z,13.83
2019-02-20T05:16:12.567Z,11.43
2019-02-20T05:18:41.753Z,12.00
2019-02-20T05:21:10.974Z,12.30
2019-02-20T05:23:39.952Z,12.67
2019-02-20T05:26:08.847Z,11.30
2019-02-20T05:28:37.774Z,13.07
2019-02-20T05:31:06.717Z,12.63
2019-02-20T05:33:35.701Z,12.27
2019-02-20T05:36:04.794Z,11.77
2019-02-20T05:38:33.766Z,12.43
2019-02-20T05:41:02.661Z,14.40
2019-02-20T05:43:31.604Z,12.10
2019-02-20T05:46:00.632Z,12.23
2019-02-20T05:48:29.654Z,12.57
2019-02-20T05:50:58.714Z,12.03
2019-02-20T05:53:27.587Z,12.13
2019-02-20T05:55:56.533Z,13.00
2019-02-20T05:58:25.553Z,13.00
2019-02-20T06:00:54.578Z,14.33
2019-02-20T06:03:23.537Z,13.60
2019-02-20T06:05:52.548Z,13.37
2019-02-20T06:08:21.523Z,13.50
2019-02-20T06:10:50.078Z,15.07
2019-02-20T06:13:19.151Z,15.00
2019-02-20T06:15:48.125Z,15.80
2019-02-20T06:18:17.199Z,15.33
2019-02-20T06:20:46.219Z,15.57
2019-02-20T06:23:15.768Z,17.13
2019-02-20T06:25:44.344Z,16.07
2019-02-20T06:28:13.296Z,17.43
2019-02-20T06:30:42.408Z,16.03
2019-02-20T06:33:11.470Z,15.73
2019-02-20T06:35:40.728Z,16.60
2019-02-20T06:38:10.927Z,16.87
2019-02-20T06:40:40.417Z,17.57
2019-02-20T06:43:09.541Z,17.63
2019-02-20T06:45:38.435Z,18.20
2019-02-20T06:48:07.447Z,18.50
2019-02-20T06:50:36.388Z,18.00
2019-02-20T06:53:05.491Z,16.57
2019-02-20T06:55:34.440Z,19.57
2019-02-20T06:58:03.469Z,19.40
2019-02-20T07:00:32.451Z,18.67
2019-02-20T07:03:01.401Z,18.73
2019-02-20T07:05:38.753Z,18.73
2019-02-20T07:08:46.217Z,18.80
2019-02-20T07:11:48.031Z,18.57
2019-02-20T07:14:39.455Z,18.83
2019-02-20T07:17:54.337Z,19.20
2019-02-20T07:21:16.357Z,20.13
2019-02-20T07:23:57.844Z,18.93
2019-02-20T07:27:14.247Z,20.67
2019-02-20T07:30:03.992Z,18.03
2019-02-20T07:32:33.888Z,18.47
2019-02-20T07:35:02.942Z,19.30
2019-02-20T07:37:32.099Z,18.97
2019-02-20T07:40:01.081Z,17.60
2019-02-20T07:42:30.048Z,18.70
2019-02-20T07:44:58.988Z,19.87
2019-02-20T07:47:27.964Z,19.50
2019-02-20T07:49:56.964Z,21.40
2019-02-20T07:52:25.940Z,18.73
2019-02-20T07:54:54.945Z,19.73
2019-02-20T07:57:24.886Z,19.93
2019-02-20T07:59:53.944Z,20.07
2019-02-20T08:02:23.014Z,18.60
2019-02-20T08:04:52.018Z,18.10
2019-02-20T08:07:21.009Z,18.17
2019-02-20T08:09:50.208Z,17.47
2019-02-20T08:12:19.102Z,18.03
2019-02-20T08:14:48.131Z,18.43
2019-02-20T08:17:17.112Z,18.37
2019-02-20T08:19:46.188Z,19.60
2019-02-20T08:22:15.368Z,19.10
2019-02-20T08:24:44.874Z,19.47
2019-02-20T08:27:13.948Z,20.50
2019-02-20T08:29:42.912Z,19.80
2019-02-20T08:32:11.922Z,18.93
2019-02-20T08:34:40.848Z,19.67
2019-02-20T08:37:09.818Z,20.23
2019-02-20T08:39:38.732Z,18.47
2019-02-20T08:42:07.877Z,20.17
2019-02-20T08:44:36.907Z,20.23
2019-02-20T08:47:05.872Z,18.53
2019-02-20T08:49:34.836Z,19.90
2019-02-20T08:52:03.882Z,18.47
2019-02-20T08:54:32.731Z,19.97
2019-02-20T08:57:01.716Z,18.07
2019-02-20T08:59:30.736Z,18.53
2019-02-20T09:02:00.346Z,19.10
2019-02-20T09:04:29.469Z,19.27
2019-02-20T09:06:58.460Z,17.80
2019-02-20T09:09:27.473Z,17.53
2019-02-20T09:11:56.534Z,19.10
2019-02-20T09:14:25.646Z,19.80
2019-02-20T09:16:54.605Z,17.07
2019-02-20T09:19:23.680Z,17.57
2019-02-20T09:21:52.732Z,16.90
2019-02-20T09:24:21.701Z,16.03
2019-02-20T09:26:50.688Z,17.60
2019-02-20T09:29:20.093Z,17.07
2019-02-20T09:31:49.088Z,17.67
2019-02-20T09:34:17.985Z,19.03
2019-02-20T09:36:46.920Z,18.77
2019-02-20T09:39:43.161Z,19.50
2019-02-20T09:42:15.909Z,18.20
2019-02-20T09:44:49.598Z,20.10
2019-02-20T09:47:19.532Z,18.57
2019-02-20T09:49:48.505Z,18.47
2019-02-20T09:52:17.606Z,20.13
2019-02-20T09:54:46.619Z,19.40
2019-02-20T09:57:15.694Z,19.50
2019-02-20T09:59:44.651Z,19.30
2019-02-20T10:02:13.747Z,19.23
2019-02-20T10:04:42.697Z,18.80
2019-02-20T10:07:11.837Z,17.90
2019-02-20T10:09:40.848Z,18.00
2019-02-20T10:12:09.870Z,17.93
2019-02-20T10:14:40.398Z,18.10
2019-02-20T10:17:09.601Z,17.20
2019-02-20T10:19:38.556Z,18.70
2019-02-20T10:22:07.706Z,18.87
2019-02-20T10:24:36.671Z,20.23
2019-02-20T10:27:05.841Z,18.40
2019-02-20T10:29:34.806Z,19.20
2019-02-20T10:32:03.864Z,19.30
2019-02-20T10:34:32.951Z,19.70
2019-02-20T10:37:01.818Z,22.13
2019-02-20T10:39:30.756Z,20.40
2019-02-20T10:41:59.826Z,20.10
2019-02-20T10:44:28.825Z,20.10
2019-02-20T10:46:57.860Z,19.83
2019-02-20T10:49:26.824Z,19.77
2019-02-20T10:51:56.048Z,19.70
2019-02-20T10:54:24.927Z,20.57
2019-02-20T10:56:54.065Z,18.37
2019-02-20T10:59:23.389Z,19.43
2019-02-20T11:01:52.373Z,19.30
2019-02-20T11:04:21.359Z,18.20
2019-02-20T11:06:50.263Z,19.27
2019-02-20T11:09:19.160Z,20.17
2019-02-20T11:11:48.348Z,17.60
2019-02-20T11:14:17.356Z,18.90
2019-02-20T11:16:46.372Z,17.00
2019-02-20T11:19:16.070Z,16.90
2019-02-20T11:21:45.378Z,16.03
2019-02-20T11:24:14.354Z,15.73
2019-02-20T11:26:52.940Z,12.83
2019-02-20T11:29:14.103Z,11.90
2019-02-20T11:31:43.072Z,14.50
2019-02-20T11:34:12.202Z,14.83
2019-02-20T11:36:41.253Z,15.83
2019-02-20T11:39:11.659Z,14.77
2019-02-20T11:41:40.777Z,14.80
2019-02-20T11:44:09.782Z,14.27
2019-02-20T11:46:38.836Z,14.23
2019-02-20T11:49:07.849Z,13.43
2019-02-20T11:51:37.290Z,12.33
2019-02-20T11:54:07.534Z,11.30
2019-02-20T11:56:36.528Z,10.90
2019-02-20T11:59:05.496Z,8.53
2019-02-20T12:01:34.520Z,7.63
2019-02-20T12:04:03.502Z,7.77
2019-02-20T12:06:32.396Z,7.77
2019-02-20T12:09:01.497Z,6.37
2019-02-20T12:11:30.452Z,7.30
2019-02-20T12:13:59.517Z,6.77
2019-02-20T12:16:28.415Z,6.60
2019-02-20T12:18:57.404Z,6.00
2019-02-20T12:21:26.363Z,5.53
2019-02-20T12:23:55.305Z,6.83
2019-02-20T12:26:24.300Z,7.10
2019-02-20T12:28:53.272Z,6.60
2019-02-20T12:31:22.281Z,8.13
2019-02-20T12:33:52.292Z,7.90
2019-02-20T12:36:21.361Z,7.70
2019-02-20T12:38:50.337Z,7.30
2019-02-20T12:41:19.200Z,8.33
2019-02-20T12:43:48.215Z,7.43
2019-02-20T12:46:17.261Z,7.53
2019-02-20T12:48:46.240Z,8.00
2019-02-20T12:51:15.428Z,7.93
2019-02-20T12:53:44.348Z,8.10
2019-02-20T12:56:13.337Z,7.70
2019-02-20T12:58:42.439Z,7.93
2019-02-20T13:01:11.495Z,7.43
2019-02-20T13:03:40.505Z,7.10
2019-02-20T13:06:09.601Z,7.07
2019-02-20T13:08:38.488Z,7.33
2019-02-20T13:11:07.581Z,7.20
2019-02-20T13:13:36.556Z,8.73
2019-02-20T13:16:09.525Z,8.33
2019-02-20T13:18:36.350Z,7.03
2019-02-20T13:21:05.257Z,8.73
2019-02-20T13:23:34.262Z,6.93
2019-02-20T13:26:03.229Z,7.57
2019-02-20T13:28:32.113Z,7.07
2019-02-20T13:31:01.110Z,8.40
2019-02-20T13:33:29.999Z,7.83
2019-02-20T13:35:59.128Z,7.00
2019-02-20T13:38:28.125Z,9.20
2019-02-20T13:40:57.092Z,9.17
2019-02-20T13:43:26.425Z,9.23
2019-02-20T13:45:55.420Z,8.97
2019-02-20T13:48:24.426Z,9.00
2019-02-20T13:50:53.664Z,8.77
2019-02-20T13:53:22.624Z,8.73
2019-02-20T13:55:51.629Z,8.47
2019-02-20T13:58:20.589Z,8.17
2019-02-20T14:00:49.741Z,8.93
2019-02-20T14:03:18.951Z,8.83
2019-02-20T14:05:48.025Z,9.30
2019-02-20T14:08:17.234Z,8.80
2019-02-20T14:10:46.378Z,8.77
2019-02-20T14:13:15.364Z,8.57
2019-02-20T14:15:45.667Z,8.63
2019-02-20T14:18:14.786Z,8.83
2019-02-20T14:20:43.837Z,7.90
2019-02-20T14:23:12.883Z,8.50
2019-02-20T14:25:41.920Z,7.90
2019-02-20T14:28:10.860Z,8.30
2019-02-20T14:30:39.897Z,7.90
2019-02-20T14:33:08.962Z,8.47
2019-02-20T14:35:37.996Z,7.90
2019-02-20T14:38:07.313Z,9.23
2019-02-20T14:40:36.369Z,9.40
2019-02-20T14:43:05.364Z,8.20
2019-02-20T14:45:34.413Z,8.57
2019-02-20T14:48:03.685Z,7.77
2019-02-20T14:50:32.723Z,7.90
2019-02-20T14:53:01.768Z,8.30
2019-02-20T14:55:30.881Z,8.43
2019-02-20T14:57:59.953Z,8.40
2019-02-20T15:00:28.826Z,8.50
2019-02-20T15:02:58.221Z,8.67
2019-02-20T15:05:27.272Z,9.50
2019-02-20T15:07:56.318Z,9.17
2019-02-20T15:10:25.685Z,8.57
2019-02-20T15:12:54.835Z,9.10
2019-02-20T15:15:23.809Z,10.77
2019-02-20T15:17:52.804Z,8.80
2019-02-20T15:20:21.874Z,8.90
2019-02-20T15:22:51.389Z,8.73
2019-02-20T15:25:20.560Z,9.00
2019-02-20T15:27:49.662Z,8.40
2019-02-20T15:30:18.702Z,8.77
2019-02-20T15:32:47.659Z,8.80
2019-02-20T15:35:17.102Z,8.73
2019-02-20T15:37:46.134Z,8.53
2019-02-20T15:40:15.254Z,9.40
2019-02-20T15:42:44.432Z,9.53
2019-02-20T15:45:13.881Z,8.93
2019-02-20T15:47:42.964Z,9.07
2019-02-20T15:50:12.509Z,7.93
2019-02-20T15:52:41.557Z,8.20
2019-02-20T15:55:11.432Z,8.87
2019-02-20T15:57:40.700Z,8.80
2019-02-20T16:00:11.550Z,9.97
2019-02-20T16:02:40.773Z,9.33
2019-02-20T16:05:10.025Z,10.10
2019-02-20T16:07:39.088Z,10.40
2019-02-20T16:10:08.927Z,8.80
2019-02-20T16:12:38.126Z,9.80
2019-02-20T16:15:07.809Z,9.43
2019-02-20T16:17:36.993Z,8.33
2019-02-20T16:20:07.517Z,9.70
2019-02-20T16:22:36.703Z,8.97
2019-02-20T16:25:06.293Z,8.23
2019-02-20T16:27:34.924Z,9.40
2019-02-20T16:30:03.967Z,9.33
2019-02-20T16:32:33.044Z,7.70
2019-02-20T16:35:01.665Z,8.77
2019-02-20T16:37:31.217Z,8.43
2019-02-20T16:40:00.364Z,7.20
2019-02-20T16:42:29.453Z,6.13
2019-02-20T16:44:58.424Z,8.20
2019-02-20T16:47:27.548Z,7.33
2019-02-20T16:49:56.440Z,7.27
2019-02-20T16:52:25.504Z,8.00
2019-02-20T16:54:55.094Z,7.47
2019-02-20T16:57:24.262Z,6.60
2019-02-20T16:59:53.276Z,8.90
2019-02-20T17:02:22.242Z,9.60
2019-02-20T17:04:59.299Z,10.50
2019-02-20T17:07:23.445Z,9.13
2019-02-20T17:09:52.448Z,9.00
2019-02-20T17:12:21.631Z,9.00
2019-02-20T17:14:50.962Z,9.10
2019-02-20T17:17:20.034Z,8.30
2019-02-20T17:19:49.025Z,7.77
2019-02-20T17:22:17.971Z,8.10
2019-02-20T17:24:47.812Z,7.10
2019-02-20T17:27:16.968Z,8.47
2019-02-20T17:29:46.216Z,6.80
2019-02-20T17:32:15.229Z,7.53
2019-02-20T17:34:44.237Z,7.67
2019-02-20T17:37:13.305Z,7.50
2019-02-20T17:39:42.721Z,8.50
2019-02-20T17:42:11.712Z,7.40
2019-02-20T17:44:42.137Z,8.70
2019-02-20T17:47:11.340Z,9.27
2019-02-20T17:49:40.322Z,10.10
2019-02-20T17:52:09.290Z,9.37
2019-02-20T17:54:38.701Z,9.00
2019-02-20T17:57:07.678Z,10.00
2019-02-20T17:59:36.844Z,10.50
2019-02-20T18:02:06.013Z,10.20
2019-02-20T18:04:35.978Z,10.60
2019-02-20T18:07:05.255Z,10.10
2019-02-20T18:09:34.341Z,13.30
2019-02-20T18:12:03.497Z,10.80
2019-02-20T18:14:32.593Z,11.00
2019-02-20T18:17:01.728Z,8.70
2019-02-20T18:19:30.722Z,8.53
2019-02-20T18:21:59.896Z,9.17
2019-02-20T18:24:29.183Z,9.30
2019-02-20T18:26:58.274Z,9.30
2019-02-20T18:29:26.861Z,9.23
2019-02-20T18:31:56.183Z,8.87
2019-02-20T18:34:25.220Z,9.07
2019-02-20T18:36:54.278Z,7.97
2019-02-20T18:39:23.376Z,10.70
2019-02-20T18:41:51.921Z,9.40
2019-02-20T18:44:20.998Z,9.43
2019-02-20T18:46:51.320Z,10.10
2019-02-20T18:49:21.117Z,9.50
2019-02-20T18:51:50.510Z,9.50
2019-02-20T18:54:21.321Z,10.60
2019-02-20T18:56:50.501Z,10.03
2019-02-20T18:59:19.580Z,10.10
2019-02-20T19:01:48.560Z,9.40
2019-02-20T19:04:17.688Z,10.90
2019-02-20T19:06:46.707Z,11.80
2019-02-20T19:09:23.758Z,10.77
2019-02-20T19:12:09.090Z,10.77
2019-02-20T19:14:51.725Z,10.90
2019-02-20T19:17:57.072Z,11.63
2019-02-20T19:20:59.138Z,12.27
2019-02-20T19:24:07.635Z,10.63
2019-02-20T19:26:47.620Z,11.30
2019-02-20T19:29:54.151Z,12.33
2019-02-20T19:33:31.048Z,11.73
2019-02-20T19:36:39.628Z,12.20
2019-02-20T19:39:16.716Z,10.53
2019-02-20T19:42:19.426Z,12.70
2019-02-20T19:45:04.694Z,11.50
2019-02-20T19:47:45.634Z,12.57
2019-02-20T19:50:29.290Z,12.77
2019-02-20T19:53:28.247Z,11.63
2019-02-20T19:56:25.063Z,13.23
2019-02-20T19:59:25.850Z,12.50
2019-02-20T20:02:32.921Z,12.33
2019-02-20T20:05:27.713Z,13.10
2019-02-20T20:08:21.014Z,13.07
2019-02-20T20:11:12.954Z,11.80
2019-02-20T20:14:25.615Z,11.30
2019-02-20T20:17:30.654Z,11.33
2019-02-20T20:20:27.436Z,11.30
2019-02-20T20:23:38.007Z,10.57
2019-02-20T20:26:41.651Z,9.73
2019-02-20T20:30:01.532Z,10.40
2019-02-20T20:32:58.341Z,10.63
2019-02-20T20:36:18.207Z,10.47
2019-02-20T20:39:13.090Z,12.90
2019-02-20T20:42:03.841Z,12.73
2019-02-20T20:44:39.001Z,12.67
2019-02-20T20:47:29.494Z,13.03
2019-02-20T20:50:36.965Z,14.10
2019-02-20T20:53:43.699Z,13.10
2019-02-20T20:56:57.285Z,12.00
2019-02-20T21:00:07.247Z,12.30
2019-02-20T21:02:51.845Z,13.90
2019-02-20T21:06:03.315Z,12.13
2019-02-20T21:08:56.134Z,15.60
2019-02-20T21:12:01.548Z,15.53
2019-02-20T21:15:18.373Z,14.43
2019-02-20T21:18:00.943Z,15.17
2019-02-20T21:20:54.640Z,14.93
2019-02-20T21:24:16.999Z,17.10
2019-02-20T21:27:15.453Z,16.27
2019-02-20T21:30:03.269Z,15.50
2019-02-20T21:33:17.552Z,17.60
2019-02-20T21:36:14.564Z,15.70
2019-02-20T21:39:27.207Z,14.80
2019-02-20T21:42:25.577Z,14.53
2019-02-20T21:45:01.202Z,14.03
2019-02-20T21:47:49.481Z,14.63
2019-02-20T21:50:46.154Z,13.33
2019-02-20T21:53:47.614Z,13.27
2019-02-20T21:56:30.962Z,15.60
2019-02-20T21:59:50.849Z,14.90
2019-02-20T22:02:51.414Z,14.10
2019-02-20T22:05:36.510Z,14.93
2019-02-20T22:08:32.706Z,15.27
2019-02-20T22:11:30.742Z,14.37
2019-02-20T22:14:21.171Z,14.50
2019-02-20T22:17:34.330Z,17.17
2019-02-20T22:20:51.506Z,17.73
2019-02-20T22:23:35.773Z,17.10
2019-02-20T22:26:32.086Z,16.47
2019-02-20T22:29:56.881Z,16.87
2019-02-20T22:33:11.973Z,17.60
2019-02-20T22:36:14.338Z,14.50
2019-02-20T22:39:05.596Z,15.87
2019-02-20T22:42:18.433Z,16.03
2019-02-20T22:45:33.582Z,15.03
2019-02-20T22:48:36.451Z,15.23
2019-02-20T22:51:24.248Z,14.57
2019-02-20T22:54:09.436Z,15.03
2019-02-20T22:56:50.800Z,14.87
2019-02-20T23:00:01.522Z,16.63
2019-02-20T23:03:19.824Z,17.03
2019-02-20T23:06:31.609Z,17.17
2019-02-20T23:09:22.232Z,16.50
2019-02-20T23:12:34.469Z,15.40
2019-02-20T23:15:03.612Z,15.10
2019-02-20T23:17:32.604Z,16.53
2019-02-20T23:20:01.517Z,16.17
2019-02-20T23:22:30.624Z,15.97
2019-02-20T23:24:59.611Z,15.83
2019-02-20T23:27:28.583Z,16.13
2019-02-20T23:29:57.641Z,15.17
2019-02-20T23:32:26.776Z,16.63
2019-02-20T23:34:55.833Z,15.73
2019-02-20T23:37:24.449Z,15.60
2019-02-20T23:39:53.426Z,17.37
2019-02-20T23:42:22.440Z,16.20
2019-02-20T23:44:52.445Z,15.67
2019-02-20T23:47:21.418Z,14.60
2019-02-20T23:49:50.436Z,15.30
2019-02-20T23:52:19.489Z,16.47
2019-02-20T23:54:48.488Z,16.57
2019-02-20T23:57:17.471Z,15.00
2019-02-20T23:59:46.704Z,15.07
